createdAt,value
2024-05-09T00:00:40.344Z,13.32
2024-05-09T00:03:09.942Z,13.30
2024-05-09T00:05:38.822Z,13.29
2024-05-09T00:08:06.635Z,13.26
2024-05-09T00:10:37.383Z,13.23
2024-05-09T00:13:07.227Z,13.22
2024-05-09T00:15:35.446Z,13.20
2024-05-09T00:18:04.274Z,13.18
2024-05-09T00:20:37.974Z,13.16
2024-05-09T00:23:12.672Z,13.14
2024-05-09T00:25:43.205Z,13.12
2024-05-09T00:28:11.849Z,13.10
2024-05-09T00:30:38.877Z,13.08
2024-05-09T00:33:07.679Z,13.07
2024-05-09T00:35:36.295Z,13.05
2024-05-09T00:38:03.863Z,13.04
2024-05-09T00:40:41.502Z,13.02
2024-05-09T00:43:12.752Z,12.99
2024-05-09T00:45:40.989Z,12.95
2024-05-09T00:48:13.401Z,12.93
2024-05-09T00:50:45.993Z,12.89
2024-05-09T00:53:15.544Z,12.86
2024-05-09T00:55:44.493Z,12.82
2024-05-09T00:58:16.024Z,12.78
2024-05-09T01:00:43.342Z,12.75
2024-05-09T01:03:12.495Z,12.73
2024-05-09T01:05:42.158Z,12.71
2024-05-09T01:08:10.592Z,12.70
2024-05-09T01:10:38.500Z,12.69
2024-05-09T01:13:06.930Z,12.67
2024-05-09T01:15:34.751Z,12.64
2024-05-09T01:18:10.381Z,12.60
2024-05-09T01:20:42.325Z,12.56
2024-05-09T01:23:13.946Z,12.52
2024-05-09T01:25:42.776Z,12.48
2024-05-09T01:28:10.027Z,12.45
2024-05-09T01:30:37.967Z,12.41
2024-05-09T01:33:08.556Z,12.38
2024-05-09T01:35:38.601Z,12.36
2024-05-09T01:38:06.036Z,12.33
2024-05-09T01:40:37.953Z,12.30
2024-05-09T01:43:08.144Z,12.27
2024-05-09T01:45:35.897Z,12.24
2024-05-09T01:48:03.621Z,12.20
2024-05-09T01:53:00.987Z,12.16
2024-05-09T01:55:28.054Z,12.16
2024-05-09T01:57:55.021Z,12.15
2024-05-09T02:00:33.761Z,12.13
2024-05-09T02:03:09.674Z,12.11
2024-05-09T02:05:37.443Z,12.09
2024-05-09T02:08:05.577Z,12.07
2024-05-09T02:10:33.454Z,12.06
2024-05-09T02:13:01.032Z,12.04
2024-05-09T02:15:28.068Z,12.04
2024-05-09T02:17:57.469Z,12.03
2024-05-09T02:20:33.461Z,12.02
2024-05-09T02:23:05.041Z,12.00
2024-05-09T02:25:32.679Z,11.97
2024-05-09T02:27:59.938Z,11.94
2024-05-09T02:30:37.774Z,11.92
2024-05-09T02:33:09.137Z,11.90
2024-05-09T02:35:37.202Z,11.88
2024-05-09T02:38:04.499Z,11.86
2024-05-09T02:40:37.626Z,11.85
2024-05-09T02:43:07.343Z,11.82
2024-05-09T02:45:34.688Z,11.80
2024-05-09T02:48:02.307Z,11.78
2024-05-09T02:50:36.944Z,11.78
2024-05-09T02:53:10.679Z,11.77
2024-05-09T02:55:38.519Z,11.74
2024-05-09T02:58:08.315Z,11.71
2024-05-09T03:00:39.715Z,11.69
2024-05-09T03:03:14.626Z,11.66
2024-05-09T03:05:44.145Z,11.63
2024-05-09T03:08:11.741Z,11.61
2024-05-09T03:10:39.670Z,11.60
2024-05-09T03:13:15.487Z,11.57
2024-05-09T03:15:44.945Z,11.55
2024-05-09T03:18:12.779Z,11.52
2024-05-09T03:20:40.388Z,11.51
2024-05-09T03:23:09.395Z,11.48
2024-05-09T03:25:37.804Z,11.46
2024-05-09T03:28:05.115Z,11.45
2024-05-09T03:30:39.946Z,11.43
2024-05-09T03:33:10.882Z,11.40
2024-05-09T03:35:38.213Z,11.37
2024-05-09T03:38:05.263Z,11.35
2024-05-09T03:40:32.291Z,11.32
2024-05-09T03:42:59.316Z,11.29
2024-05-09T03:45:26.314Z,11.27
2024-05-09T03:47:53.629Z,11.25
2024-05-09T03:50:29.542Z,11.23
2024-05-09T03:53:03.663Z,11.20
2024-05-09T03:55:31.088Z,11.19
2024-05-09T03:57:58.396Z,11.17
2024-05-09T04:00:31.748Z,11.15
2024-05-09T04:03:07.294Z,11.13
2024-05-09T04:05:37.756Z,11.10
2024-05-09T04:08:05.645Z,11.08
2024-05-09T04:10:34.316Z,11.06
2024-05-09T04:13:03.560Z,11.06
2024-05-09T04:15:31.062Z,11.06
2024-05-09T04:17:58.399Z,11.04
2024-05-09T04:20:35.967Z,11.05
2024-05-09T04:23:08.294Z,11.05
2024-05-09T04:25:36.811Z,11.04
2024-05-09T04:28:03.970Z,11.04
2024-05-09T04:30:37.548Z,11.05
2024-05-09T04:33:10.300Z,11.04
2024-05-09T04:35:42.972Z,11.03
2024-05-09T04:38:11.107Z,11.03
2024-05-09T04:40:38.521Z,11.02
2024-05-09T04:43:06.792Z,11.02
2024-05-09T04:45:35.133Z,11.02
2024-05-09T04:48:03.027Z,11.02
2024-05-09T04:50:36.732Z,11.02
2024-05-09T04:53:10.590Z,11.04
2024-05-09T04:55:40.307Z,11.04
2024-05-09T04:58:09.085Z,11.05
2024-05-09T05:00:38.726Z,11.07
2024-05-09T05:03:13.904Z,11.10
2024-05-09T05:05:44.842Z,11.15
2024-05-09T05:08:17.985Z,11.19
2024-05-09T05:10:46.884Z,11.25
2024-05-09T05:13:22.586Z,11.30
2024-05-09T05:15:53.310Z,11.36
2024-05-09T05:18:21.829Z,11.42
2024-05-09T05:20:49.561Z,11.51
2024-05-09T05:23:19.358Z,11.61
2024-05-09T05:25:48.277Z,11.72
2024-05-09T05:28:16.720Z,11.81
2024-05-09T05:30:44.055Z,11.92
2024-05-09T05:33:13.322Z,12.02
2024-05-09T05:35:41.531Z,12.11
2024-05-09T05:38:10.202Z,12.20
2024-05-09T05:40:39.089Z,12.30
2024-05-09T05:43:09.107Z,12.39
2024-05-09T05:45:36.508Z,12.48
2024-05-09T05:48:05.894Z,12.52
2024-05-09T05:50:36.754Z,12.55
2024-05-09T05:53:07.686Z,12.60
2024-05-09T05:55:42.026Z,12.69
2024-05-09T05:58:10.467Z,12.82
2024-05-09T06:00:39.733Z,12.95
2024-05-09T06:03:09.608Z,13.07
2024-05-09T06:05:39.642Z,13.18
2024-05-09T06:08:07.373Z,13.30
2024-05-09T06:10:38.594Z,13.42
2024-05-09T06:13:10.322Z,13.51
2024-05-09T06:15:37.397Z,13.60
2024-05-09T06:18:09.565Z,13.69
2024-05-09T06:20:39.486Z,13.75
2024-05-09T06:23:07.341Z,13.80
2024-05-09T06:25:35.555Z,13.89
2024-05-09T06:28:03.010Z,13.99
2024-05-09T06:30:37.551Z,14.09
2024-05-09T06:33:08.969Z,14.22
2024-05-09T06:35:37.213Z,14.33
2024-05-09T06:38:04.860Z,14.38
2024-05-09T06:40:38.179Z,14.40
2024-05-09T06:43:13.348Z,14.46
2024-05-09T06:45:40.605Z,14.55
2024-05-09T06:48:09.232Z,14.66
2024-05-09T06:50:38.511Z,14.75
2024-05-09T06:53:07.895Z,14.81
2024-05-09T06:55:36.594Z,14.99
2024-05-09T06:58:06.405Z,15.16
2024-05-09T07:00:38.947Z,15.23
2024-05-09T07:03:14.750Z,15.30
2024-05-09T07:05:44.617Z,15.38
2024-05-09T07:08:13.931Z,15.46
2024-05-09T07:10:41.411Z,15.50
2024-05-09T07:13:12.837Z,15.56
2024-05-09T07:15:41.088Z,15.64
2024-05-09T07:18:20.193Z,15.69
2024-05-09T07:20:49.321Z,15.74
2024-05-09T07:23:17.781Z,15.82
2024-05-09T07:25:45.090Z,15.92
2024-05-09T07:28:18.803Z,16.06
2024-05-09T07:30:46.376Z,16.16
2024-05-09T07:33:22.194Z,16.21
2024-05-09T07:35:50.685Z,16.28
2024-05-09T07:38:17.820Z,16.33
2024-05-09T07:40:44.993Z,16.36
2024-05-09T07:43:12.844Z,16.42
2024-05-09T07:45:49.584Z,16.50
2024-05-09T07:52:38.433Z,16.60
2024-05-09T07:53:49.505Z,16.63
2024-05-09T07:56:22.113Z,16.69
2024-05-09T07:58:51.993Z,16.75
2024-05-09T08:01:19.934Z,16.81
2024-05-09T08:03:49.794Z,16.90
2024-05-09T08:06:17.140Z,16.97
2024-05-09T08:08:46.756Z,17.06
2024-05-09T08:11:13.863Z,17.13
2024-05-09T08:13:40.938Z,17.22
2024-05-09T08:16:09.610Z,17.29
2024-05-09T08:18:36.914Z,17.34
2024-05-09T08:21:04.211Z,17.38
2024-05-09T08:23:31.368Z,17.40
2024-05-09T08:25:58.401Z,17.44
2024-05-09T08:28:25.442Z,17.48
2024-05-09T08:30:52.750Z,17.57
2024-05-09T08:33:20.101Z,17.56
2024-05-09T08:35:47.228Z,17.60
2024-05-09T08:38:14.323Z,17.63
2024-05-09T08:40:41.551Z,17.71
2024-05-09T08:43:11.573Z,17.77
2024-05-09T08:45:44.756Z,17.88
2024-05-09T08:48:15.294Z,18.04
2024-05-09T08:50:44.998Z,18.16
2024-05-09T08:53:14.651Z,18.27
2024-05-09T08:55:43.786Z,18.36
2024-05-09T08:58:19.223Z,18.46
2024-05-09T09:00:47.380Z,18.62
2024-05-09T09:03:19.539Z,18.73
2024-05-09T09:06:05.719Z,18.77
2024-05-09T09:08:32.902Z,18.82
2024-05-09T09:11:00.003Z,18.86
2024-05-09T09:13:27.616Z,18.93
2024-05-09T09:15:58.480Z,19.05
2024-05-09T09:18:27.137Z,19.15
2024-05-09T09:20:55.313Z,19.24
2024-05-09T09:23:22.715Z,19.33
2024-05-09T09:25:50.122Z,19.43
2024-05-09T09:28:17.725Z,19.57
2024-05-09T09:30:45.883Z,19.74
2024-05-09T09:33:13.118Z,19.86
2024-05-09T09:35:42.341Z,19.96
2024-05-09T09:38:10.672Z,20.02
2024-05-09T09:40:49.538Z,20.09
2024-05-09T09:43:22.126Z,20.14
2024-05-09T09:45:52.985Z,20.19
2024-05-09T09:48:21.756Z,20.23
2024-05-09T09:50:51.347Z,20.23
2024-05-09T09:53:19.771Z,20.21
2024-05-09T09:55:48.213Z,20.19
2024-05-09T09:58:17.315Z,20.17
2024-05-09T10:00:45.148Z,20.14
2024-05-09T10:03:12.660Z,20.08
2024-05-09T10:05:43.046Z,20.02
2024-05-09T10:08:14.562Z,19.96
2024-05-09T10:10:47.315Z,19.91
2024-05-09T10:13:15.330Z,19.87
2024-05-09T10:15:46.458Z,19.85
2024-05-09T10:18:14.582Z,19.85
2024-05-09T10:20:46.324Z,19.86
2024-05-09T10:23:30.647Z,19.88
2024-05-09T10:26:01.802Z,19.91
2024-05-09T10:28:33.518Z,19.94
2024-05-09T10:31:11.530Z,19.96
2024-05-09T10:33:52.676Z,20.01
2024-05-09T10:36:22.382Z,20.04
2024-05-09T10:38:50.450Z,20.05
2024-05-09T10:41:18.672Z,20.06
2024-05-09T10:43:46.531Z,20.06
2024-05-09T10:46:14.735Z,20.08
2024-05-09T10:48:43.997Z,20.11
2024-05-09T10:51:11.580Z,20.16
2024-05-09T10:53:46.203Z,20.20
2024-05-09T10:56:14.727Z,20.26
2024-05-09T10:58:42.059Z,20.36
2024-05-09T11:01:09.781Z,20.46
2024-05-09T11:03:38.777Z,20.56
2024-05-09T11:06:07.155Z,20.67
2024-05-09T11:08:36.278Z,20.75
2024-05-09T11:11:07.168Z,20.81
2024-05-09T11:13:36.177Z,20.86
2024-05-09T11:16:05.199Z,20.89
2024-05-09T11:18:36.625Z,20.94
2024-05-09T11:21:13.425Z,20.96
2024-05-09T11:23:41.452Z,21.00
2024-05-09T11:26:10.300Z,21.05
2024-05-09T11:28:37.296Z,21.11
2024-05-09T11:31:09.664Z,21.17
2024-05-09T11:33:43.489Z,21.19
2024-05-09T11:36:10.855Z,21.23
2024-05-09T11:38:37.903Z,21.26
2024-05-09T11:41:05.488Z,21.29
2024-05-09T11:43:33.048Z,21.33
2024-05-09T11:46:01.125Z,21.33
2024-05-09T11:48:28.659Z,21.33
2024-05-09T11:50:56.723Z,21.33
2024-05-09T11:53:23.957Z,21.33
2024-05-09T11:55:50.947Z,21.33
2024-05-09T11:58:18.945Z,21.33
2024-05-09T12:00:47.120Z,21.34
2024-05-09T12:03:14.671Z,21.33
2024-05-09T12:05:42.304Z,21.30
2024-05-09T12:08:09.606Z,21.29
2024-05-09T12:10:37.385Z,21.27
2024-05-09T12:13:06.502Z,21.27
2024-05-09T12:15:38.277Z,21.27
2024-05-09T12:18:07.750Z,21.30
2024-05-09T12:20:38.858Z,21.32
2024-05-09T12:23:09.837Z,21.34
2024-05-09T12:25:39.287Z,21.37
2024-05-09T12:28:07.861Z,21.38
2024-05-09T12:30:38.771Z,21.39
2024-05-09T12:33:12.576Z,21.37
2024-05-09T12:35:44.010Z,21.33
2024-05-09T12:38:14.086Z,21.33
2024-05-09T12:40:41.592Z,21.34
2024-05-09T12:43:10.356Z,21.36
2024-05-09T12:45:38.743Z,21.32
2024-05-09T12:48:10.876Z,21.28
2024-05-09T12:50:41.522Z,21.28
2024-05-09T12:53:08.899Z,21.30
2024-05-09T12:55:44.135Z,21.33
2024-05-09T12:58:21.709Z,21.34
2024-05-09T13:00:48.861Z,21.36
2024-05-09T13:03:16.082Z,21.33
2024-05-09T13:05:46.276Z,21.31
2024-05-09T13:08:13.776Z,21.32
2024-05-09T13:10:41.147Z,21.33
2024-05-09T13:13:11.202Z,21.32
2024-05-09T13:15:38.973Z,21.31
2024-05-09T13:18:07.092Z,21.30
2024-05-09T13:20:36.585Z,21.32
2024-05-09T13:23:06.485Z,21.36
2024-05-09T13:25:35.111Z,21.39
2024-05-09T13:28:03.471Z,21.41
2024-05-09T13:30:39.096Z,21.41
2024-05-09T13:33:13.751Z,21.39
2024-05-09T13:35:46.943Z,21.39
2024-05-09T13:38:18.043Z,21.34
2024-05-09T13:40:45.451Z,21.33
2024-05-09T13:43:12.748Z,21.30
2024-05-09T13:45:39.919Z,21.31
2024-05-09T13:48:09.542Z,21.33
2024-05-09T13:50:37.275Z,21.32
2024-05-09T13:53:06.495Z,21.30
2024-05-09T13:55:35.368Z,21.29
2024-05-09T13:58:03.022Z,21.28
2024-05-09T14:00:42.088Z,21.26
2024-05-09T14:03:16.116Z,21.23
2024-05-09T14:05:44.200Z,21.22
2024-05-09T14:08:11.735Z,21.15
2024-05-09T14:10:44.005Z,21.12
2024-05-09T14:13:11.904Z,21.10
2024-05-09T14:15:39.019Z,21.08
2024-05-09T14:18:11.158Z,21.05
2024-05-09T14:20:40.208Z,21.03
2024-05-09T14:23:07.226Z,21.02
2024-05-09T14:25:38.700Z,21.01
2024-05-09T14:28:09.593Z,21.01
2024-05-09T14:30:38.373Z,21.00
2024-05-09T14:33:07.994Z,21.01
2024-05-09T14:35:37.180Z,21.03
2024-05-09T14:38:04.837Z,21.06
2024-05-09T14:40:40.441Z,21.09
2024-05-09T14:43:12.061Z,21.10
2024-05-09T14:45:39.772Z,21.13
2024-05-09T14:48:07.842Z,21.13
2024-05-09T14:50:38.520Z,21.13
2024-05-09T14:53:08.381Z,21.13
2024-05-09T14:55:37.351Z,21.15
2024-05-09T14:58:09.831Z,21.19
2024-05-09T15:00:41.496Z,21.28
2024-05-09T15:03:11.865Z,21.39
2024-05-09T15:05:39.261Z,21.47
2024-05-09T15:08:07.893Z,21.51
2024-05-09T15:10:36.648Z,21.57
2024-05-09T15:13:06.584Z,21.61
2024-05-09T15:15:35.340Z,21.64
2024-05-09T15:18:04.023Z,21.66
2024-05-09T15:20:35.402Z,21.64
2024-05-09T15:23:05.175Z,21.58
2024-05-09T15:25:36.261Z,21.57
2024-05-09T15:28:04.752Z,21.53
2024-05-09T15:30:33.736Z,21.53
2024-05-09T15:33:06.402Z,21.54
2024-05-09T15:35:34.675Z,21.54
2024-05-09T15:38:03.229Z,21.54
2024-05-09T15:40:37.818Z,21.51
2024-05-09T15:43:09.549Z,21.48
2024-05-09T15:45:38.385Z,21.44
2024-05-09T15:48:07.368Z,21.42
2024-05-09T15:50:39.078Z,21.39
2024-05-09T15:53:09.587Z,21.38
2024-05-09T15:55:38.270Z,21.38
2024-05-09T15:58:06.390Z,21.36
2024-05-09T16:00:38.742Z,21.36
2024-05-09T16:03:13.706Z,21.35
2024-05-09T16:05:45.753Z,21.35
2024-05-09T16:08:14.728Z,21.34
2024-05-09T16:10:48.280Z,21.34
2024-05-09T16:13:16.508Z,21.30
2024-05-09T16:15:44.191Z,21.26
2024-05-09T16:18:12.635Z,21.23
2024-05-09T16:20:42.137Z,21.18
2024-05-09T16:23:11.027Z,21.11
2024-05-09T16:25:39.320Z,21.06
2024-05-09T16:28:09.875Z,21.02
2024-05-09T16:30:38.865Z,20.99
2024-05-09T16:33:06.527Z,20.98
2024-05-09T16:35:34.588Z,20.95
2024-05-09T16:38:02.996Z,20.95
2024-05-09T16:40:37.431Z,20.96
2024-05-09T16:43:12.731Z,20.95
2024-05-09T16:45:43.846Z,20.91
2024-05-09T16:48:12.877Z,20.81
2024-05-09T16:50:40.083Z,20.78
2024-05-09T16:53:07.546Z,20.80
2024-05-09T16:55:35.559Z,20.80
2024-05-09T16:58:04.259Z,20.79
2024-05-09T17:00:39.784Z,20.76
2024-05-09T17:03:12.501Z,20.73
2024-05-09T17:05:40.750Z,20.64
2024-05-09T17:08:08.536Z,20.54
2024-05-09T17:10:36.524Z,20.54
2024-05-09T17:13:05.792Z,20.53
2024-05-09T17:15:34.585Z,20.51
2024-05-09T17:18:02.187Z,20.54
2024-05-09T17:20:33.894Z,20.58
2024-05-09T17:23:06.075Z,20.63
2024-05-09T17:25:33.938Z,20.73
2024-05-09T17:28:07.269Z,20.83
2024-05-09T17:30:38.162Z,20.88
2024-05-09T17:33:08.914Z,20.88
2024-05-09T17:35:37.556Z,20.81
2024-05-09T17:38:05.991Z,20.69
2024-05-09T17:40:36.201Z,20.69
2024-05-09T17:43:06.420Z,20.68
2024-05-09T17:45:35.007Z,20.63
2024-05-09T17:48:02.716Z,20.63
2024-05-09T17:50:35.656Z,20.58
2024-05-09T17:53:06.080Z,20.56
2024-05-09T17:55:33.514Z,20.53
2024-05-09T17:58:01.067Z,20.50
2024-05-09T18:00:36.582Z,20.46
2024-05-09T18:03:08.940Z,20.39
2024-05-09T18:05:37.236Z,20.34
2024-05-09T18:08:06.087Z,20.32
2024-05-09T18:10:37.228Z,20.28
2024-05-09T18:13:08.030Z,20.21
2024-05-09T18:15:36.336Z,20.15
2024-05-09T18:18:04.515Z,20.08
2024-05-09T18:20:40.410Z,19.97
2024-05-09T18:23:13.105Z,19.86
2024-05-09T18:25:40.256Z,19.76
2024-05-09T18:28:08.110Z,19.67
2024-05-09T18:30:36.832Z,19.55
2024-05-09T18:33:10.358Z,19.42
2024-05-09T18:35:38.019Z,19.29
2024-05-09T18:38:05.702Z,19.22
2024-05-09T18:40:36.351Z,19.17
2024-05-09T18:43:07.162Z,19.11
2024-05-09T18:45:37.501Z,19.04
2024-05-09T18:48:06.494Z,18.99
2024-05-09T18:50:37.836Z,18.93
2024-05-09T18:53:08.270Z,18.89
2024-05-09T18:55:35.941Z,18.86
2024-05-09T18:58:05.838Z,18.84
2024-05-09T19:00:36.862Z,18.84
2024-05-09T19:03:09.416Z,18.83
2024-05-09T19:05:39.007Z,18.83
2024-05-09T19:08:07.255Z,18.79
2024-05-09T19:10:35.769Z,18.71
2024-05-09T19:13:09.242Z,18.65
2024-05-09T19:15:40.480Z,18.60
2024-05-09T19:18:08.482Z,18.56
2024-05-09T19:20:36.715Z,18.49
2024-05-09T19:23:06.194Z,18.40
2024-05-09T19:25:34.314Z,18.33
2024-05-09T19:28:01.637Z,18.28
2024-05-09T19:30:37.244Z,18.26
2024-05-09T19:33:09.847Z,18.26
2024-05-09T19:35:38.012Z,18.27
2024-05-09T19:38:05.437Z,18.29
2024-05-09T19:40:34.184Z,18.31
2024-05-09T19:43:03.318Z,18.33
2024-05-09T19:45:32.664Z,18.35
2024-05-09T19:48:00.173Z,18.37
2024-05-09T19:50:36.811Z,18.38
2024-05-09T19:53:10.258Z,18.39
2024-05-09T19:55:37.783Z,18.40
2024-05-09T19:58:08.724Z,18.38
2024-05-09T20:00:40.315Z,18.35
2024-05-09T20:03:10.704Z,18.34
2024-05-09T20:05:38.505Z,18.33
2024-05-09T20:08:06.556Z,18.30
2024-05-09T20:10:35.659Z,18.26
2024-05-09T20:13:06.000Z,18.24
2024-05-09T20:15:35.682Z,18.21
2024-05-09T20:18:03.825Z,18.18
2024-05-09T20:20:37.685Z,18.16
2024-05-09T20:23:09.180Z,18.13
2024-05-09T20:25:36.632Z,18.06
2024-05-09T20:28:04.697Z,17.97
2024-05-09T20:30:35.748Z,17.86
2024-05-09T20:33:04.875Z,17.76
2024-05-09T20:35:33.486Z,17.72
2024-05-09T20:38:01.805Z,17.68
2024-05-09T20:40:34.015Z,17.64
2024-05-09T20:43:05.471Z,17.59
2024-05-09T20:45:32.998Z,17.52
2024-05-09T20:48:00.538Z,17.47
2024-05-09T20:50:36.379Z,17.42
2024-05-09T20:53:09.364Z,17.37
2024-05-09T20:55:36.627Z,17.32
2024-05-09T20:58:03.812Z,17.29
2024-05-09T21:00:39.240Z,17.26
2024-05-09T21:03:10.144Z,17.24
2024-05-09T21:05:37.526Z,17.22
2024-05-09T21:08:04.939Z,17.20
2024-05-09T21:10:33.732Z,17.19
2024-05-09T21:13:02.912Z,17.17
2024-05-09T21:15:31.074Z,17.16
2024-05-09T21:17:58.354Z,17.12
2024-05-09T21:20:31.124Z,17.07
2024-05-09T21:23:01.294Z,17.02
2024-05-09T21:25:28.762Z,16.98
2024-05-09T21:27:55.867Z,16.96
2024-05-09T21:30:32.509Z,16.94
2024-05-09T21:33:09.392Z,16.93
2024-05-09T21:35:37.800Z,16.92
2024-05-09T21:38:05.017Z,16.91
2024-05-09T21:40:35.144Z,16.90
2024-05-09T21:43:04.737Z,16.87
2024-05-09T21:45:32.472Z,16.83
2024-05-09T21:47:59.780Z,16.80
2024-05-09T21:50:35.789Z,16.76
2024-05-09T21:53:07.131Z,16.71
2024-05-09T21:55:34.503Z,16.69
2024-05-09T21:58:01.743Z,16.65
2024-05-09T22:00:35.770Z,16.61
2024-05-09T22:03:09.948Z,16.58
2024-05-09T22:05:39.149Z,16.55
2024-05-09T22:08:06.946Z,16.53
2024-05-09T22:10:36.171Z,16.50
2024-05-09T22:13:08.010Z,16.46
2024-05-09T22:15:37.569Z,16.43
2024-05-09T22:18:06.045Z,16.38
2024-05-09T22:20:37.552Z,16.35
2024-05-09T22:23:07.818Z,16.32
2024-05-09T22:25:35.735Z,16.30
2024-05-09T22:28:03.457Z,16.27
2024-05-09T22:30:36.060Z,16.25
2024-05-09T22:33:08.466Z,16.24
2024-05-09T22:35:36.533Z,16.23
2024-05-09T22:38:04.048Z,16.21
2024-05-09T22:40:41.714Z,16.17
2024-05-09T22:43:17.943Z,16.14
2024-05-09T22:45:46.113Z,16.11
2024-05-09T22:48:13.566Z,16.06
2024-05-09T22:50:40.880Z,16.01
2024-05-09T22:53:08.008Z,15.97
2024-05-09T22:55:35.080Z,15.93
2024-05-09T22:58:03.077Z,15.91
2024-05-09T23:00:32.326Z,15.88
2024-05-09T23:03:01.619Z,15.84
2024-05-09T23:05:29.464Z,15.81
2024-05-09T23:07:56.781Z,15.77
2024-05-09T23:10:31.580Z,15.74
2024-05-09T23:13:03.253Z,15.71
2024-05-09T23:15:30.503Z,15.68
2024-05-09T23:17:58.218Z,15.66
2024-05-09T23:20:35.842Z,15.66
2024-05-09T23:23:06.788Z,15.65
2024-05-09T23:25:34.185Z,15.63
2024-05-09T23:28:01.335Z,15.60
2024-05-09T23:30:36.043Z,15.57
2024-05-09T23:33:07.412Z,15.53
2024-05-09T23:35:34.760Z,15.50
2024-05-09T23:38:01.839Z,15.45
2024-05-09T23:42:58.777Z,15.36
2024-05-09T23:45:25.805Z,15.32
2024-05-09T23:47:53.206Z,15.28
2024-05-09T23:50:26.500Z,15.24
2024-05-09T23:53:00.174Z,15.21
2024-05-09T23:55:28.020Z,15.18
2024-05-09T23:57:55.371Z,15.12
